createdAt,value
2018-07-28T00:00:15.452Z,25.80
2018-07-28T00:02:51.123Z,25.70
2018-07-28T00:05:25.601Z,25.70
2018-07-28T00:10:35.425Z,25.60
2018-07-28T00:13:09.833Z,25.50
2018-07-28T00:15:44.148Z,25.60
2018-07-28T00:18:23.032Z,25.50
2018-07-28T00:20:59.116Z,25.40
2018-07-28T00:23:35.257Z,25.30
2018-07-28T00:26:16.657Z,25.30
2018-07-28T00:28:52.917Z,25.30
2018-07-28T00:31:27.290Z,25.60
2018-07-28T00:34:01.908Z,25.30
2018-07-28T00:36:36.691Z,25.30
2018-07-28T00:39:13.600Z,25.30
2018-07-28T00:41:49.311Z,25.20
2018-07-28T00:44:24.766Z,25.30
2018-07-28T00:47:00.616Z,25.30
2018-07-28T00:49:35.154Z,25.30
2018-07-28T00:52:10.591Z,25.40
2018-07-28T00:54:46.604Z,25.40
2018-07-28T00:57:21.065Z,25.50
2018-07-28T01:03:54.806Z,25.40
2018-07-28T01:06:29.140Z,25.40
2018-07-28T01:09:06.037Z,25.20
2018-07-28T01:11:40.435Z,25.30
2018-07-28T01:14:14.961Z,25.50
2018-07-28T01:16:51.327Z,25.30
2018-07-28T01:19:27.066Z,25.20
2018-07-28T01:22:01.487Z,25.20
2018-07-28T01:24:45.338Z,25.20
2018-07-28T01:27:21.070Z,25.20
2018-07-28T01:29:55.612Z,25.20
2018-07-28T01:32:31.471Z,25.10
2018-07-28T01:35:06.658Z,25.00
2018-07-28T01:37:41.224Z,25.00
2018-07-28T01:40:17.108Z,25.00
2018-07-28T01:45:28.558Z,24.90
2018-07-28T01:48:02.932Z,24.70
2018-07-28T01:50:37.427Z,24.70
2018-07-28T01:53:13.189Z,24.70
2018-07-28T01:55:47.542Z,24.60
2018-07-28T01:58:22.177Z,24.50
2018-07-28T02:00:58.922Z,24.50
2018-07-28T02:03:33.643Z,24.50
2018-07-28T02:06:08.003Z,24.50
2018-07-28T02:08:42.420Z,24.40
2018-07-28T02:11:18.659Z,24.40
2018-07-28T02:13:53.158Z,24.50
2018-07-28T02:16:27.612Z,24.40
2018-07-28T02:21:52.499Z,24.40
2018-07-28T02:24:28.560Z,24.40
2018-07-28T02:27:04.529Z,24.40
2018-07-28T02:29:38.993Z,24.50
2018-07-28T02:32:13.451Z,24.50
2018-07-28T02:34:47.899Z,24.50
2018-07-28T02:37:22.217Z,24.50
2018-07-28T02:39:58.159Z,24.30
2018-07-28T02:42:34.114Z,24.30
2018-07-28T02:45:08.453Z,24.30
2018-07-28T02:47:42.681Z,24.20
2018-07-28T02:50:17.299Z,24.20
2018-07-28T02:52:53.359Z,24.10
2018-07-28T02:55:28.188Z,24.10
2018-07-28T02:58:02.620Z,24.10
2018-07-28T03:00:37.103Z,24.10
2018-07-28T03:03:12.769Z,24.10
2018-07-28T03:05:48.519Z,24.10
2018-07-28T03:08:24.615Z,24.00
2018-07-28T03:10:59.299Z,23.90
2018-07-28T03:13:33.671Z,23.90
2018-07-28T03:16:10.920Z,23.90
2018-07-28T03:18:46.807Z,23.90
2018-07-28T03:21:22.655Z,23.90
2018-07-28T03:23:58.432Z,23.90
2018-07-28T03:26:34.127Z,23.70
2018-07-28T03:29:09.481Z,23.80
2018-07-28T03:31:43.915Z,23.70
2018-07-28T03:34:18.352Z,23.60
2018-07-28T03:36:52.775Z,23.80
2018-07-28T03:39:28.798Z,23.60
2018-07-28T03:42:12.583Z,23.70
2018-07-28T03:44:47.621Z,23.80
2018-07-28T03:47:21.988Z,23.70
2018-07-28T03:49:56.536Z,23.70
2018-07-28T03:52:31.023Z,23.60
2018-07-28T03:55:07.615Z,23.50
2018-07-28T03:57:43.794Z,23.50
2018-07-28T04:00:18.474Z,23.50
2018-07-28T04:02:54.516Z,23.50
2018-07-28T04:05:28.977Z,23.50
2018-07-28T04:08:03.711Z,23.80
2018-07-28T04:10:38.139Z,23.50
2018-07-28T04:13:12.539Z,23.50
2018-07-28T04:15:47.051Z,23.40
2018-07-28T04:18:22.899Z,23.50
2018-07-28T04:20:58.517Z,23.60
2018-07-28T04:23:34.484Z,23.80
2018-07-28T04:26:10.072Z,24.00
2018-07-28T04:28:45.953Z,23.90
2018-07-28T04:31:20.383Z,24.00
2018-07-28T04:33:55.203Z,24.00
2018-07-28T04:36:30.754Z,23.90
2018-07-28T04:39:08.147Z,24.00
2018-07-28T04:41:43.986Z,24.10
2018-07-28T04:44:19.547Z,24.20
2018-07-28T04:46:55.247Z,24.20
2018-07-28T04:49:30.350Z,24.20
2018-07-28T04:52:06.223Z,24.20
2018-07-28T04:54:42.239Z,24.40
2018-07-28T04:57:16.547Z,24.40
2018-07-28T04:59:53.887Z,24.40
2018-07-28T05:02:30.388Z,24.40
2018-07-28T05:05:06.151Z,24.60
2018-07-28T05:07:40.681Z,24.70
2018-07-28T05:10:14.951Z,24.80
2018-07-28T05:12:49.652Z,24.90
2018-07-28T05:15:24.362Z,25.00
2018-07-28T05:18:03.817Z,25.20
2018-07-28T05:20:39.565Z,25.30
2018-07-28T05:23:15.315Z,25.50
2018-07-28T05:25:51.375Z,25.60
2018-07-28T05:28:27.015Z,25.70
2018-07-28T05:31:01.772Z,25.80
2018-07-28T05:33:42.598Z,25.90
2018-07-28T05:36:18.955Z,26.00
2018-07-28T05:41:28.662Z,26.20
2018-07-28T05:44:04.283Z,26.20
2018-07-28T05:46:40.209Z,26.40
2018-07-28T05:49:14.487Z,26.80
2018-07-28T05:51:48.836Z,26.90
2018-07-28T05:54:24.434Z,27.10
2018-07-28T05:57:07.060Z,27.40
2018-07-28T05:59:41.500Z,27.30
2018-07-28T06:02:17.586Z,27.30
2018-07-28T06:04:51.947Z,27.20
2018-07-28T06:10:00.457Z,27.40
2018-07-28T06:12:34.855Z,27.50
2018-07-28T06:15:09.549Z,27.70
2018-07-28T06:20:25.488Z,28.20
2018-07-28T06:23:02.184Z,28.30
2018-07-28T06:25:37.884Z,28.40
2018-07-28T06:28:13.643Z,28.30
2018-07-28T06:30:48.139Z,28.50
2018-07-28T06:33:24.060Z,28.50
2018-07-28T06:35:58.610Z,28.40
2018-07-28T06:38:33.452Z,28.60
2018-07-28T06:41:09.287Z,28.80
2018-07-28T06:43:45.680Z,28.70
2018-07-28T06:46:20.182Z,28.70
2018-07-28T06:48:55.051Z,29.10
2018-07-28T06:51:29.576Z,29.00
2018-07-28T06:54:05.647Z,29.30
2018-07-28T06:56:40.080Z,29.40
2018-07-28T06:59:14.467Z,29.60
2018-07-28T07:01:49.118Z,29.60
2018-07-28T07:04:25.371Z,29.70
2018-07-28T07:06:59.832Z,30.10
2018-07-28T07:09:35.178Z,30.40
2018-07-28T07:12:11.707Z,30.80
2018-07-28T07:14:46.155Z,30.80
2018-07-28T07:17:21.063Z,31.10
2018-07-28T07:19:57.427Z,30.80
2018-07-28T07:22:31.799Z,30.90
2018-07-28T07:25:07.712Z,31.30
2018-07-28T07:27:43.511Z,31.00
2018-07-28T07:30:19.324Z,30.70
2018-07-28T07:32:53.784Z,30.40
2018-07-28T07:35:29.691Z,31.10
2018-07-28T07:38:04.254Z,31.40
2018-07-28T07:40:40.299Z,31.70
2018-07-28T07:43:16.139Z,31.40
2018-07-28T07:45:51.281Z,31.60
2018-07-28T07:48:27.327Z,31.40
2018-07-28T07:51:01.837Z,31.00
2018-07-28T07:53:37.920Z,31.50
2018-07-28T07:56:12.353Z,31.80
2018-07-28T07:58:48.308Z,32.20
2018-07-28T08:01:23.024Z,32.70
2018-07-28T08:03:59.695Z,33.00
2018-07-28T08:06:34.702Z,32.40
2018-07-28T08:09:09.472Z,31.90
2018-07-28T08:11:44.084Z,32.00
2018-07-28T08:14:18.489Z,32.70
2018-07-28T08:16:52.972Z,32.80
2018-07-28T08:19:28.883Z,33.00
2018-07-28T08:22:05.703Z,32.60
2018-07-28T08:24:46.445Z,31.70
2018-07-28T08:27:23.598Z,31.80
2018-07-28T08:29:57.977Z,32.10
2018-07-28T08:32:32.560Z,32.70
2018-07-28T08:35:07.324Z,32.90
2018-07-28T08:37:41.756Z,32.50
2018-07-28T08:40:17.706Z,32.60
2018-07-28T08:42:53.520Z,32.60
2018-07-28T08:45:27.943Z,32.90
2018-07-28T08:48:04.208Z,33.00
2018-07-28T08:50:38.669Z,32.40
2018-07-28T08:53:14.463Z,32.30
2018-07-28T08:55:49.134Z,32.40
2018-07-28T08:58:23.629Z,32.10
2018-07-28T09:00:58.355Z,32.00
2018-07-28T09:03:34.113Z,32.40
2018-07-28T09:06:08.545Z,32.90
2018-07-28T09:08:42.870Z,33.60
2018-07-28T09:11:17.408Z,33.80
2018-07-28T09:13:53.008Z,33.50
2018-07-28T09:16:27.546Z,33.50
2018-07-28T09:19:11.802Z,34.00
2018-07-28T09:24:23.399Z,33.70
2018-07-28T09:26:59.570Z,33.10
2018-07-28T09:29:34.371Z,32.70
2018-07-28T09:32:08.746Z,32.60
2018-07-28T09:34:43.180Z,32.50
2018-07-28T09:37:18.996Z,32.20
2018-07-28T09:39:53.462Z,32.60
2018-07-28T09:42:28.871Z,32.10
2018-07-28T09:45:03.299Z,32.50
2018-07-28T09:47:38.293Z,32.70
2018-07-28T09:50:12.668Z,32.20
2018-07-28T09:52:48.023Z,31.70
2018-07-28T09:55:23.952Z,32.20
2018-07-28T09:57:58.472Z,32.90
2018-07-28T10:00:38.233Z,33.30
2018-07-28T10:03:14.103Z,33.20
2018-07-28T10:05:48.414Z,32.80
2018-07-28T10:08:23.123Z,33.30
2018-07-28T10:10:57.544Z,32.70
2018-07-28T10:13:31.988Z,32.00
2018-07-28T10:16:08.475Z,32.10
2018-07-28T10:18:44.370Z,31.90
2018-07-28T10:21:23.927Z,32.00
2018-07-28T10:24:01.729Z,31.60
2018-07-28T10:26:38.091Z,31.60
2018-07-28T10:29:13.963Z,31.90
2018-07-28T10:31:48.513Z,32.40
2018-07-28T10:34:22.816Z,32.90
2018-07-28T10:36:57.211Z,33.50
2018-07-28T10:39:31.646Z,33.50
2018-07-28T10:42:07.393Z,33.70
2018-07-28T10:44:41.694Z,33.00
2018-07-28T10:47:16.043Z,32.70
2018-07-28T10:49:50.574Z,32.60
2018-07-28T10:52:26.106Z,32.30
2018-07-28T10:55:02.263Z,32.60
2018-07-28T10:57:36.648Z,33.20
2018-07-28T11:00:10.994Z,32.90
2018-07-28T11:02:46.742Z,32.80
2018-07-28T11:05:21.093Z,32.90
2018-07-28T11:07:55.579Z,32.60
2018-07-28T11:10:31.355Z,32.50
2018-07-28T11:13:07.820Z,32.70
2018-07-28T11:15:42.390Z,32.20
2018-07-28T11:18:18.458Z,32.30
2018-07-28T11:20:54.251Z,32.10
2018-07-28T11:23:41.707Z,31.90
2018-07-28T11:26:17.409Z,32.50
2018-07-28T11:28:53.768Z,32.60
2018-07-28T11:31:39.465Z,32.60
2018-07-28T11:34:25.398Z,32.40
2018-07-28T11:37:11.139Z,32.30
2018-07-28T11:39:57.060Z,31.80
2018-07-28T11:42:43.979Z,31.70
2018-07-28T11:45:19.040Z,32.00
2018-07-28T11:47:53.499Z,32.30
2018-07-28T11:50:27.814Z,32.60
2018-07-28T11:53:03.709Z,32.10
2018-07-28T11:55:38.480Z,32.00
2018-07-28T11:58:13.062Z,32.10
2018-07-28T12:01:01.620Z,32.30
2018-07-28T12:03:37.495Z,32.60
2018-07-28T12:06:11.939Z,32.40
2018-07-28T12:08:47.071Z,32.40
2018-07-28T12:11:21.430Z,32.20
2018-07-28T12:13:55.858Z,32.20
2018-07-28T12:16:30.212Z,32.60
2018-07-28T12:19:11.876Z,32.70
2018-07-28T12:21:47.644Z,32.10
2018-07-28T12:24:23.594Z,32.30
2018-07-28T12:26:59.550Z,32.80
2018-07-28T12:29:33.983Z,32.60
2018-07-28T12:32:08.618Z,32.20
2018-07-28T12:34:43.404Z,32.30
2018-07-28T12:37:17.629Z,32.10
2018-07-28T12:39:52.538Z,31.90
2018-07-28T12:42:28.235Z,31.90
2018-07-28T12:45:02.646Z,32.00
2018-07-28T12:47:37.045Z,32.10
2018-07-28T12:50:13.125Z,32.00
2018-07-28T12:52:49.290Z,31.90
2018-07-28T12:55:24.284Z,31.90
2018-07-28T12:58:01.080Z,32.20
2018-07-28T13:00:35.594Z,32.20
2018-07-28T13:03:12.057Z,32.30
2018-07-28T13:05:46.625Z,32.10
2018-07-28T13:08:21.078Z,32.20
2018-07-28T13:10:55.504Z,32.10
2018-07-28T13:13:30.116Z,31.50
2018-07-28T13:16:06.366Z,31.50
2018-07-28T13:18:42.708Z,31.40
2018-07-28T13:21:18.264Z,31.40
2018-07-28T13:25:19.068Z,31.20
2018-07-28T13:27:56.356Z,31.40
2018-07-28T13:30:32.257Z,31.40
2018-07-28T13:33:06.731Z,31.20
2018-07-28T13:35:41.359Z,31.10
2018-07-28T13:38:17.470Z,31.30
2018-07-28T13:40:53.739Z,31.70
2018-07-28T13:43:28.176Z,32.10
2018-07-28T13:46:02.647Z,32.00
2018-07-28T13:48:37.150Z,31.80
2018-07-28T13:51:13.054Z,31.90
2018-07-28T13:53:48.911Z,32.00
2018-07-28T13:56:23.374Z,32.50
2018-07-28T13:58:57.915Z,32.90
2018-07-28T14:01:32.254Z,32.80
2018-07-28T14:04:08.351Z,33.00
2018-07-28T14:06:43.552Z,32.90
2018-07-28T14:09:18.070Z,32.80
2018-07-28T14:11:52.562Z,32.70
2018-07-28T14:14:28.226Z,32.80
2018-07-28T14:17:03.702Z,32.80
2018-07-28T14:19:39.686Z,32.60
2018-07-28T14:22:14.028Z,32.90
2018-07-28T14:24:50.412Z,33.00
2018-07-28T14:27:26.699Z,33.00
2018-07-28T14:30:02.388Z,33.00
2018-07-28T14:32:36.811Z,33.00
2018-07-28T14:35:11.236Z,32.70
2018-07-28T14:37:45.681Z,32.60
2018-07-28T14:43:01.115Z,32.70
2018-07-28T14:45:37.252Z,32.70
2018-07-28T14:48:11.577Z,32.80
2018-07-28T14:50:45.947Z,32.80
2018-07-28T14:53:21.725Z,32.80
2018-07-28T14:55:56.118Z,32.80
2018-07-28T14:58:30.388Z,32.70
2018-07-28T15:01:05.169Z,32.60
2018-07-28T15:03:41.030Z,32.60
2018-07-28T15:06:15.663Z,32.70
2018-07-28T15:08:50.975Z,32.70
2018-07-28T15:11:27.368Z,32.30
2018-07-28T15:14:01.791Z,32.20
2018-07-28T15:16:37.351Z,32.00
2018-07-28T15:21:48.667Z,32.50
2018-07-28T15:24:24.004Z,32.50
2018-07-28T15:26:59.709Z,32.10
2018-07-28T15:29:34.116Z,32.10
2018-07-28T15:32:08.538Z,32.20
2018-07-28T15:34:42.832Z,32.00
2018-07-28T15:37:17.242Z,31.90
2018-07-28T15:39:53.671Z,31.70
2018-07-28T15:42:29.459Z,31.70
2018-07-28T15:45:04.106Z,32.20
2018-07-28T15:47:38.399Z,32.00
2018-07-28T15:50:12.944Z,32.20
2018-07-28T15:52:49.211Z,31.80
2018-07-28T15:55:23.653Z,31.80
2018-07-28T15:57:58.120Z,31.60
2018-07-28T16:00:32.575Z,31.50
2018-07-28T16:03:08.382Z,31.30
2018-07-28T16:05:42.842Z,31.40
2018-07-28T16:08:19.067Z,31.90
2018-07-28T16:10:53.590Z,31.70
2018-07-28T16:13:27.899Z,31.50
2018-07-28T16:16:02.445Z,31.50
2018-07-28T16:18:38.395Z,31.80
2018-07-28T16:21:14.195Z,31.70
2018-07-28T16:23:48.619Z,32.20
2018-07-28T16:26:24.407Z,32.10
2018-07-28T16:29:00.163Z,31.90
2018-07-28T16:31:34.573Z,31.30
2018-07-28T16:34:08.970Z,31.10
2018-07-28T16:36:43.370Z,30.90
2018-07-28T16:39:17.652Z,30.80
2018-07-28T16:41:53.268Z,30.40
2018-07-28T16:44:27.714Z,30.40
2018-07-28T16:47:02.253Z,29.90
2018-07-28T16:49:36.590Z,29.90
2018-07-28T16:52:12.591Z,30.40
2018-07-28T16:54:48.399Z,30.40
2018-07-28T16:57:23.001Z,30.10
2018-07-28T16:59:57.427Z,29.80
2018-07-28T17:02:33.647Z,29.50
2018-07-28T17:05:09.783Z,29.10
2018-07-28T17:07:45.683Z,28.80
2018-07-28T17:10:20.047Z,28.90
2018-07-28T17:12:54.438Z,28.80
2018-07-28T17:15:29.836Z,29.20
2018-07-28T17:18:04.233Z,29.10
2018-07-28T17:20:40.296Z,29.10
2018-07-28T17:23:14.809Z,28.90
2018-07-28T17:25:59.568Z,28.70
2018-07-28T17:28:35.630Z,28.80
2018-07-28T17:31:10.387Z,28.60
2018-07-28T17:33:44.860Z,28.50
2018-07-28T17:36:19.440Z,28.60
2018-07-28T17:41:30.940Z,29.00
2018-07-28T17:44:06.867Z,28.90
2018-07-28T17:46:41.492Z,28.80
2018-07-28T17:49:15.802Z,28.90
2018-07-28T17:51:50.268Z,29.10
2018-07-28T17:54:25.751Z,28.90
2018-07-28T17:57:01.427Z,28.70
2018-07-28T17:59:35.904Z,28.50
2018-07-28T18:02:19.177Z,28.70
2018-07-28T18:04:54.723Z,28.70
2018-07-28T18:07:29.257Z,28.70
2018-07-28T18:10:03.841Z,28.70
2018-07-28T18:12:39.642Z,28.30
2018-07-28T18:15:14.056Z,28.40
2018-07-28T18:17:49.056Z,28.20
2018-07-28T18:20:26.381Z,28.30
2018-07-28T18:23:01.017Z,28.30
2018-07-28T18:25:37.255Z,28.00
2018-07-28T18:28:13.469Z,27.70
2018-07-28T18:30:49.360Z,27.80
2018-07-28T18:35:57.907Z,27.90
2018-07-28T18:38:33.582Z,27.90
2018-07-28T18:41:09.479Z,27.90
2018-07-28T18:43:44.081Z,28.00
2018-07-28T18:46:18.410Z,27.90
2018-07-28T18:48:53.191Z,27.60
2018-07-28T18:51:27.575Z,27.60
2018-07-28T18:54:03.223Z,27.80
2018-07-28T18:56:37.685Z,27.80
2018-07-28T18:59:13.048Z,27.80
2018-07-28T19:01:48.616Z,28.10
2018-07-28T19:04:24.678Z,28.00
2018-07-28T19:06:59.120Z,28.20
2018-07-28T19:09:39.120Z,28.20
2018-07-28T19:12:13.630Z,27.60
2018-07-28T19:14:49.403Z,27.60
2018-07-28T19:17:34.509Z,27.90
2018-07-28T19:20:10.760Z,27.70
2018-07-28T19:22:51.503Z,28.20
2018-07-28T19:25:27.157Z,28.40
2018-07-28T19:28:08.159Z,28.40
2018-07-28T19:30:42.574Z,28.40
2018-07-28T19:33:18.410Z,28.10
2018-07-28T19:35:58.072Z,28.20
2018-07-28T19:38:32.602Z,28.00
2018-07-28T19:41:08.759Z,28.10
2018-07-28T19:43:43.267Z,28.70
2018-07-28T19:46:19.420Z,28.30
2018-07-28T19:48:53.988Z,28.10
2018-07-28T19:51:28.419Z,27.90
2018-07-28T19:54:04.480Z,28.40
2018-07-28T19:56:38.867Z,28.80
2018-07-28T19:59:14.579Z,28.60
2018-07-28T20:01:48.856Z,28.90
2018-07-28T20:04:24.667Z,28.70
2018-07-28T20:07:00.627Z,28.60
2018-07-28T20:09:35.463Z,29.00
2018-07-28T20:12:09.771Z,28.80
2018-07-28T20:14:44.158Z,28.70
2018-07-28T20:17:26.206Z,28.30
2018-07-28T20:20:02.151Z,28.10
2018-07-28T20:22:36.677Z,28.00
2018-07-28T20:25:12.842Z,28.10
2018-07-28T20:27:48.850Z,28.00
2018-07-28T20:30:23.244Z,28.30
2018-07-28T20:32:57.895Z,28.80
2018-07-28T20:35:32.579Z,28.70
2018-07-28T20:38:06.923Z,28.50
2018-07-28T20:40:49.556Z,28.70
2018-07-28T20:43:23.991Z,28.60
2018-07-28T20:45:58.562Z,28.60
2018-07-28T20:48:32.919Z,28.40
2018-07-28T20:51:07.671Z,28.20
2018-07-28T20:53:43.665Z,28.50
2018-07-28T20:56:19.734Z,28.10
2018-07-28T20:58:54.160Z,27.90
2018-07-28T21:01:28.780Z,27.70
2018-07-28T21:04:04.511Z,27.70
2018-07-28T21:09:14.739Z,27.70
2018-07-28T21:11:49.243Z,27.80
2018-07-28T21:14:23.766Z,28.30
2018-07-28T21:16:58.267Z,28.50
2018-07-28T21:19:37.028Z,28.30
2018-07-28T21:22:12.957Z,28.20
2018-07-28T21:24:49.119Z,27.90
2018-07-28T21:27:25.099Z,27.60
2018-07-28T21:29:59.638Z,27.60
2018-07-28T21:32:35.444Z,27.50
2018-07-28T21:35:09.836Z,27.50
2018-07-28T21:37:44.130Z,27.70
2018-07-28T21:40:18.491Z,27.70
2018-07-28T21:42:54.188Z,27.70
2018-07-28T21:45:28.992Z,27.60
2018-07-28T21:48:03.393Z,27.70
2018-07-28T21:50:37.787Z,28.30
2018-07-28T21:53:13.688Z,28.20
2018-07-28T21:55:48.075Z,28.00
2018-07-28T21:58:22.391Z,27.70
2018-07-28T22:01:02.540Z,27.70
2018-07-28T22:03:38.441Z,27.90
2018-07-28T22:06:12.868Z,28.20
2018-07-28T22:08:47.253Z,28.40
2018-07-28T22:11:21.599Z,28.40
2018-07-28T22:13:55.964Z,28.50
2018-07-28T22:16:30.539Z,28.70
2018-07-28T22:19:07.039Z,28.50
2018-07-28T22:21:42.911Z,28.40
2018-07-28T22:24:17.380Z,28.50
2018-07-28T22:26:53.248Z,28.50
2018-07-28T22:29:27.670Z,28.00
2018-07-28T22:32:03.800Z,28.00
2018-07-28T22:34:38.239Z,28.40
2018-07-28T22:37:12.774Z,28.40
2018-07-28T22:39:47.191Z,28.50
2018-07-28T22:42:33.100Z,28.30
2018-07-28T22:45:07.501Z,28.70
2018-07-28T22:47:42.230Z,28.70
2018-07-28T22:50:17.414Z,29.00
2018-07-28T22:52:53.536Z,29.10
2018-07-28T22:55:27.883Z,28.70
2018-07-28T22:58:02.491Z,27.90
2018-07-28T23:00:36.839Z,28.10
2018-07-28T23:03:12.468Z,28.30
2018-07-28T23:05:48.377Z,28.10
2018-07-28T23:08:22.870Z,28.60
2018-07-28T23:10:57.223Z,28.80
2018-07-28T23:13:31.584Z,28.50
2018-07-28T23:16:06.372Z,27.90
2018-07-28T23:18:42.463Z,27.50
2018-07-28T23:21:18.290Z,27.60
2018-07-28T23:23:52.784Z,27.80
2018-07-28T23:26:28.423Z,27.40
2018-07-28T23:29:04.161Z,27.30
2018-07-28T23:31:38.693Z,27.50
2018-07-28T23:34:13.160Z,27.30
2018-07-28T23:36:47.711Z,26.90
2018-07-28T23:39:22.018Z,26.90
2018-07-28T23:41:57.827Z,27.00
2018-07-28T23:44:32.179Z,26.80
2018-07-28T23:47:06.699Z,26.50
2018-07-28T23:49:42.027Z,26.50
2018-07-28T23:52:17.080Z,26.40
2018-07-28T23:54:53.063Z,26.50
2018-07-28T23:57:27.593Z,26.60
